KNGP/NGP METAR and TAF weather

Enter ICAO airport designator
Station Type Date Time Source
KNGP METAR 2019/11/15 04:56 UTC NOAA

KNGP 150456Z 34014KT 10SM OVC008 09/09 A3036 RMK AO2 RAE23 SLP279 P0001 T00890089


Station Type Date Time Source
KNGP Decoded METAR 2019/11/15 04:56 UTC NOAA

CORPUS CHRISTI NAVAL AIR STN, TX, United States (KNGP) 27-41N 097-17W
Nov 14, 2019 - 11:56 PM EST / 2019.11.15 0456 UTC
Wind: from the NNW (340 degrees) at 16 MPH (14 KT):0
Visibility: 10 mile(s):0
Sky conditions: overcast
Precipitation last hour: 0.01 inches
Temperature: 48.0 F (8.9 C)
Dew Point: 48.0 F (8.9 C)
Relative Humidity: 100%
Pressure (altimeter): 30.36 in. Hg (1028 hPa)
ob: KNGP 150456Z 34014KT 10SM OVC008 09/09 A3036 RMK AO2 RAE23 SLP279 P0001 T00890089
cycle: 5

Station Type Date Time Source
KNGP TAF 2019/11/14 23:54 UTC NOAA

TAF KNGP 1423/1523 35020G28KT 9000 BR VCSH BKN009 OVC012 510053 QNH3019INS
TEMPO 1423/1504 36018KT 2400 -RA BR BKN006 OVC009
FM150400 36016G22KT 9999 VCSH BKN010 OVC015 500000 QNH3032INS
TEMPO 1504/1507 36017KT 4800 -RA BR BKN007 OVC010
BECMG 1507/1509 36015G21KT 9999 VCSH SCT008 BKN018 OVC035 QNH3029INS
BECMG 1513/1515 36015KT 9999 NSW SCT020 BKN250 QNH3038INS
FM151900 02015KT 9999 FEW030 FEW180 SCT250 QNH3028INS AUTOMATED SENSOR METWATCH 1505 TIL 1512 T07/1511Z T16/1520Z FN20042

Example: see airport list